Terminal Aerodrome Forecast
Issued by NWS Green Bay, WI

Current Version | Previous Version | Text Only | Print | Product List | Glossary On
Versions: 1 2 3 4 5 6 7 8 9 10 11 12 13 14 15 16 17 18 19 20 21 22 23 24 25 26 27 28 29 30 31 32 33 34
000
FTUS43 KGRB 050520
TAFGRB
TAF
KGRB 050520Z 0506/0606 05005KT P6SM SCT080
      TEMPO 0508/0512 2SM BR SCT025
     FM051500 09006KT P6SM BKN040
     FM060200 12003KT P6SM SCT040=

USA.gov is the U.S. government's official web portal to all federal, state and local government web resources and services.